sensor_id;sensor_type;location;lat;lon;timestamp;P1;durP1;ratioP1;P2;durP2;ratioP2
4182;SDS011;2105;52.300;9.182;2022-09-20T00:00:38;6.03;;;1.83;;
4182;SDS011;2105;52.300;9.182;2022-09-20T00:03:05;12.77;;;2.10;;
4182;SDS011;2105;52.300;9.182;2022-09-20T00:05:32;23.13;;;2.90;;
4182;SDS011;2105;52.300;9.182;2022-09-20T00:08:01;15.73;;;2.90;;
4182;SDS011;2105;52.300;9.182;2022-09-20T00:10:28;17.80;;;4.57;;
4182;SDS011;2105;52.300;9.182;2022-09-20T00:12:58;19.87;;;2.90;;
4182;SDS011;2105;52.300;9.182;2022-09-20T00:15:24;12.10;;;2.63;;
4182;SDS011;2105;52.300;9.182;2022-09-20T00:17:51;8.93;;;2.37;;
4182;SDS011;2105;52.300;9.182;2022-09-20T00:20:18;8.77;;;2.60;;
4182;SDS011;2105;52.300;9.182;2022-09-20T06:22:12;10.50;;;3.50;;
4182;SDS011;2105;52.300;9.182;2022-09-20T06:24:45;12.63;;;3.50;;
4182;SDS011;2105;52.300;9.182;2022-09-20T06:27:17;17.43;;;3.50;;
4182;SDS011;2105;52.300;9.182;2022-09-20T06:29:50;12.43;;;3.50;;
4182;SDS011;2105;52.300;9.182;2022-09-20T06:32:20;24.87;;;3.83;;
4182;SDS011;2105;52.300;9.182;2022-09-20T06:34:47;12.67;;;3.47;;
4182;SDS011;2105;52.300;9.182;2022-09-20T06:37:19;15.00;;;3.53;;
4182;SDS011;2105;52.300;9.182;2022-09-20T06:40:23;12.53;;;3.87;;
4182;SDS011;2105;52.300;9.182;2022-09-20T06:43:14;17.33;;;3.83;;
4182;SDS011;2105;52.300;9.182;2022-09-20T06:45:41;8.03;;;3.30;;
4182;SDS011;2105;52.300;9.182;2022-09-20T06:48:08;16.43;;;3.90;;
4182;SDS011;2105;52.300;9.182;2022-09-20T06:50:37;14.03;;;2.90;;
4182;SDS011;2105;52.300;9.182;2022-09-20T06:53:05;8.43;;;2.90;;
4182;SDS011;2105;52.300;9.182;2022-09-20T06:55:33;16.97;;;3.97;;
4182;SDS011;2105;52.300;9.182;2022-09-20T06:58:03;5.57;;;3.17;;
4182;SDS011;2105;52.300;9.182;2022-09-20T07:00:30;13.43;;;3.63;;
4182;SDS011;2105;52.300;9.182;2022-09-20T07:02:57;10.33;;;3.43;;
4182;SDS011;2105;52.300;9.182;2022-09-20T07:05:23;12.57;;;3.20;;
4182;SDS011;2105;52.300;9.182;2022-09-20T07:07:54;17.27;;;3.83;;
4182;SDS011;2105;52.300;9.182;2022-09-20T07:10:23;15.67;;;3.93;;
4182;SDS011;2105;52.300;9.182;2022-09-20T07:12:53;9.73;;;3.80;;
4182;SDS011;2105;52.300;9.182;2022-09-20T07:15:21;11.90;;;3.80;;
4182;SDS011;2105;52.300;9.182;2022-09-20T07:17:48;6.87;;;3.27;;
4182;SDS011;2105;52.300;9.182;2022-09-20T07:20:16;8.87;;;3.40;;
4182;SDS011;2105;52.300;9.182;2022-09-20T07:22:43;21.97;;;4.97;;
4182;SDS011;2105;52.300;9.182;2022-09-20T07:25:10;15.10;;;4.70;;
4182;SDS011;2105;52.300;9.182;2022-09-20T07:27:38;10.90;;;3.87;;
4182;SDS011;2105;52.300;9.182;2022-09-20T07:30:05;13.53;;;3.97;;
4182;SDS011;2105;52.300;9.182;2022-09-20T07:32:32;10.73;;;3.80;;
4182;SDS011;2105;52.300;9.182;2022-09-20T07:34:59;12.17;;;4.50;;
4182;SDS011;2105;52.300;9.182;2022-09-20T07:37:26;12.30;;;5.13;;
4182;SDS011;2105;52.300;9.182;2022-09-20T07:39:53;11.20;;;4.27;;
4182;SDS011;2105;52.300;9.182;2022-09-20T07:42:19;11.70;;;5.40;;
4182;SDS011;2105;52.300;9.182;2022-09-20T07:44:47;10.50;;;4.83;;
4182;SDS011;2105;52.300;9.182;2022-09-20T07:47:14;8.53;;;5.20;;
4182;SDS011;2105;52.300;9.182;2022-09-20T07:49:42;16.73;;;5.40;;
4182;SDS011;2105;52.300;9.182;2022-09-20T07:52:08;8.23;;;4.87;;
4182;SDS011;2105;52.300;9.182;2022-09-20T07:54:36;8.70;;;4.60;;
4182;SDS011;2105;52.300;9.182;2022-09-20T07:57:02;11.17;;;4.80;;
4182;SDS011;2105;52.300;9.182;2022-09-20T07:59:29;14.43;;;4.67;;
4182;SDS011;2105;52.300;9.182;2022-09-20T08:01:58;11.70;;;5.10;;
4182;SDS011;2105;52.300;9.182;2022-09-20T08:04:24;10.73;;;5.30;;
4182;SDS011;2105;52.300;9.182;2022-09-20T08:06:51;11.17;;;4.43;;
4182;SDS011;2105;52.300;9.182;2022-09-20T08:09:18;12.27;;;4.87;;
4182;SDS011;2105;52.300;9.182;2022-09-20T08:11:44;17.00;;;5.00;;
4182;SDS011;2105;52.300;9.182;2022-09-20T08:14:12;11.40;;;5.90;;
4182;SDS011;2105;52.300;9.182;2022-09-20T08:16:40;13.70;;;4.70;;
4182;SDS011;2105;52.300;9.182;2022-09-20T08:19:13;14.10;;;5.03;;
4182;SDS011;2105;52.300;9.182;2022-09-20T08:21:40;18.13;;;5.20;;
4182;SDS011;2105;52.300;9.182;2022-09-20T08:24:07;10.73;;;4.63;;
4182;SDS011;2105;52.300;9.182;2022-09-20T08:26:33;8.60;;;4.90;;
4182;SDS011;2105;52.300;9.182;2022-09-20T08:29:01;11.20;;;4.80;;
4182;SDS011;2105;52.300;9.182;2022-09-20T08:31:29;16.13;;;5.53;;
4182;SDS011;2105;52.300;9.182;2022-09-20T08:34:00;17.10;;;4.80;;
4182;SDS011;2105;52.300;9.182;2022-09-20T08:36:29;8.70;;;4.30;;
4182;SDS011;2105;52.300;9.182;2022-09-20T08:38:57;11.73;;;4.90;;
4182;SDS011;2105;52.300;9.182;2022-09-20T08:41:25;18.77;;;5.93;;
4182;SDS011;2105;52.300;9.182;2022-09-20T08:43:55;12.83;;;5.57;;
4182;SDS011;2105;52.300;9.182;2022-09-20T08:46:26;20.53;;;5.30;;
4182;SDS011;2105;52.300;9.182;2022-09-20T08:48:56;12.13;;;5.53;;
4182;SDS011;2105;52.300;9.182;2022-09-20T08:51:24;13.30;;;5.20;;
4182;SDS011;2105;52.300;9.182;2022-09-20T08:53:58;14.53;;;6.97;;
4182;SDS011;2105;52.300;9.182;2022-09-20T08:56:26;15.70;;;6.63;;
4182;SDS011;2105;52.300;9.182;2022-09-20T08:58:55;16.00;;;6.60;;
4182;SDS011;2105;52.300;9.182;2022-09-20T09:01:24;14.87;;;7.90;;
4182;SDS011;2105;52.300;9.182;2022-09-20T09:06:23;10.33;;;8.43;;
4182;SDS011;2105;52.300;9.182;2022-09-20T09:08:52;11.20;;;8.67;;
4182;SDS011;2105;52.300;9.182;2022-09-20T09:11:23;11.80;;;8.83;;
4182;SDS011;2105;52.300;9.182;2022-09-20T09:13:51;12.07;;;8.50;;
4182;SDS011;2105;52.300;9.182;2022-09-20T09:16:21;13.87;;;8.73;;
4182;SDS011;2105;52.300;9.182;2022-09-20T09:18:50;14.63;;;8.77;;
4182;SDS011;2105;52.300;9.182;2022-09-20T09:21:18;13.00;;;8.30;;
4182;SDS011;2105;52.300;9.182;2022-09-20T09:23:49;14.77;;;7.97;;
4182;SDS011;2105;52.300;9.182;2022-09-20T09:26:25;13.63;;;8.70;;
4182;SDS011;2105;52.300;9.182;2022-09-20T09:29:10;10.00;;;8.80;;
4182;SDS011;2105;52.300;9.182;2022-09-20T09:31:41;12.80;;;8.20;;
4182;SDS011;2105;52.300;9.182;2022-09-20T09:34:22;10.33;;;7.53;;
4182;SDS011;2105;52.300;9.182;2022-09-20T09:36:50;8.63;;;7.67;;
4182;SDS011;2105;52.300;9.182;2022-09-20T09:39:22;12.73;;;8.17;;
4182;SDS011;2105;52.300;9.182;2022-09-20T09:41:50;9.43;;;8.30;;
4182;SDS011;2105;52.300;9.182;2022-09-20T09:44:18;13.70;;;9.23;;
4182;SDS011;2105;52.300;9.182;2022-09-20T09:46:47;10.97;;;9.20;;
4182;SDS011;2105;52.300;9.182;2022-09-20T09:49:16;12.47;;;9.50;;
4182;SDS011;2105;52.300;9.182;2022-09-20T09:51:59;10.50;;;8.83;;
4182;SDS011;2105;52.300;9.182;2022-09-20T09:54:31;12.53;;;10.30;;
4182;SDS011;2105;52.300;9.182;2022-09-20T09:57:04;10.50;;;8.70;;
4182;SDS011;2105;52.300;9.182;2022-09-20T09:59:46;14.00;;;8.97;;
4182;SDS011;2105;52.300;9.182;2022-09-20T10:02:34;14.13;;;8.83;;
4182;SDS011;2105;52.300;9.182;2022-09-20T10:05:15;11.30;;;8.57;;
4182;SDS011;2105;52.300;9.182;2022-09-20T10:07:48;10.70;;;7.90;;
4182;SDS011;2105;52.300;9.182;2022-09-20T10:10:24;10.13;;;9.20;;
4182;SDS011;2105;52.300;9.182;2022-09-20T10:12:59;17.47;;;9.53;;
4182;SDS011;2105;52.300;9.182;2022-09-20T10:15:36;12.00;;;11.00;;
4182;SDS011;2105;52.300;9.182;2022-09-20T10:18:10;19.47;;;12.00;;
4182;SDS011;2105;52.300;9.182;2022-09-20T10:20:49;13.13;;;11.53;;
4182;SDS011;2105;52.300;9.182;2022-09-20T10:23:30;12.93;;;10.93;;
4182;SDS011;2105;52.300;9.182;2022-09-20T10:26:10;14.20;;;10.50;;
4182;SDS011;2105;52.300;9.182;2022-09-20T10:28:50;12.30;;;10.80;;
4182;SDS011;2105;52.300;9.182;2022-09-20T10:31:31;14.57;;;10.00;;
4182;SDS011;2105;52.300;9.182;2022-09-20T10:34:21;9.53;;;8.60;;
4182;SDS011;2105;52.300;9.182;2022-09-20T10:37:05;10.40;;;7.10;;
4182;SDS011;2105;52.300;9.182;2022-09-20T10:39:38;8.67;;;5.90;;
4182;SDS011;2105;52.300;9.182;2022-09-20T10:42:12;9.80;;;4.67;;
4182;SDS011;2105;52.300;9.182;2022-09-20T10:45:09;5.10;;;3.53;;
4182;SDS011;2105;52.300;9.182;2022-09-20T10:47:44;8.77;;;3.80;;
4182;SDS011;2105;52.300;9.182;2022-09-20T10:50:17;7.17;;;3.50;;
4182;SDS011;2105;52.300;9.182;2022-09-20T10:52:57;5.87;;;3.10;;
4182;SDS011;2105;52.300;9.182;2022-09-20T10:55:40;7.23;;;3.17;;
4182;SDS011;2105;52.300;9.182;2022-09-20T10:58:25;5.47;;;2.90;;
4182;SDS011;2105;52.300;9.182;2022-09-20T11:01:06;7.40;;;3.90;;
4182;SDS011;2105;52.300;9.182;2022-09-20T11:03:42;8.50;;;3.87;;
4182;SDS011;2105;52.300;9.182;2022-09-20T11:06:22;7.03;;;3.30;;
4182;SDS011;2105;52.300;9.182;2022-09-20T11:09:01;7.03;;;4.03;;
4182;SDS011;2105;52.300;9.182;2022-09-20T11:11:33;8.03;;;3.73;;
4182;SDS011;2105;52.300;9.182;2022-09-20T11:14:10;8.90;;;3.40;;
4182;SDS011;2105;52.300;9.182;2022-09-20T11:16:41;4.93;;;3.77;;
4182;SDS011;2105;52.300;9.182;2022-09-20T11:19:14;4.50;;;3.47;;
4182;SDS011;2105;52.300;9.182;2022-09-20T11:21:51;6.43;;;3.00;;
4182;SDS011;2105;52.300;9.182;2022-09-20T11:24:26;4.40;;;3.47;;
4182;SDS011;2105;52.300;9.182;2022-09-20T11:26:56;4.90;;;4.37;;
4182;SDS011;2105;52.300;9.182;2022-09-20T11:29:29;5.30;;;4.37;;
4182;SDS011;2105;52.300;9.182;2022-09-20T11:32:00;5.07;;;4.63;;
4182;SDS011;2105;52.300;9.182;2022-09-20T11:34:33;5.10;;;4.70;;
4182;SDS011;2105;52.300;9.182;2022-09-20T11:37:04;7.00;;;5.50;;
4182;SDS011;2105;52.300;9.182;2022-09-20T11:39:33;5.37;;;4.87;;
4182;SDS011;2105;52.300;9.182;2022-09-20T11:42:04;7.03;;;5.30;;
4182;SDS011;2105;52.300;9.182;2022-09-20T11:44:39;5.33;;;4.80;;
4182;SDS011;2105;52.300;9.182;2022-09-20T11:47:09;9.33;;;5.60;;
4182;SDS011;2105;52.300;9.182;2022-09-20T11:49:44;10.37;;;6.77;;
4182;SDS011;2105;52.300;9.182;2022-09-20T11:52:26;7.50;;;6.00;;
4182;SDS011;2105;52.300;9.182;2022-09-20T11:55:19;10.63;;;8.33;;
4182;SDS011;2105;52.300;9.182;2022-09-20T11:57:59;11.80;;;10.47;;
4182;SDS011;2105;52.300;9.182;2022-09-20T12:00:30;11.03;;;10.10;;
4182;SDS011;2105;52.300;9.182;2022-09-20T12:02:59;14.60;;;12.20;;
4182;SDS011;2105;52.300;9.182;2022-09-20T12:05:29;13.10;;;11.73;;
4182;SDS011;2105;52.300;9.182;2022-09-20T12:07:59;14.47;;;13.07;;
4182;SDS011;2105;52.300;9.182;2022-09-20T12:10:28;14.47;;;13.17;;
4182;SDS011;2105;52.300;9.182;2022-09-20T12:12:59;14.90;;;13.60;;
4182;SDS011;2105;52.300;9.182;2022-09-20T12:15:30;14.23;;;13.13;;
4182;SDS011;2105;52.300;9.182;2022-09-20T12:21:02;14.80;;;13.50;;
4182;SDS011;2105;52.300;9.182;2022-09-20T12:23:43;14.40;;;12.97;;
4182;SDS011;2105;52.300;9.182;2022-09-20T12:26:44;13.23;;;12.03;;
4182;SDS011;2105;52.300;9.182;2022-09-20T12:32:40;14.40;;;13.23;;
4182;SDS011;2105;52.300;9.182;2022-09-20T12:38:28;15.00;;;13.90;;
4182;SDS011;2105;52.300;9.182;2022-09-20T12:41:01;19.33;;;14.37;;
4182;SDS011;2105;52.300;9.182;2022-09-20T12:43:32;14.90;;;13.60;;
4182;SDS011;2105;52.300;9.182;2022-09-20T12:46:01;14.97;;;13.60;;
4182;SDS011;2105;52.300;9.182;2022-09-20T12:48:31;14.57;;;13.40;;
4182;SDS011;2105;52.300;9.182;2022-09-20T12:51:02;14.90;;;13.80;;
4182;SDS011;2105;52.300;9.182;2022-09-20T12:53:59;14.80;;;13.60;;
4182;SDS011;2105;52.300;9.182;2022-09-20T12:56:29;14.17;;;13.00;;
4182;SDS011;2105;52.300;9.182;2022-09-20T12:58:58;14.80;;;13.70;;
4182;SDS011;2105;52.300;9.182;2022-09-20T13:01:38;15.33;;;14.00;;
4182;SDS011;2105;52.300;9.182;2022-09-20T13:07:33;15.10;;;13.60;;
4182;SDS011;2105;52.300;9.182;2022-09-20T13:10:12;14.33;;;13.23;;
4182;SDS011;2105;52.300;9.182;2022-09-20T13:12:54;14.33;;;13.00;;
4182;SDS011;2105;52.300;9.182;2022-09-20T13:15:25;13.67;;;12.30;;
4182;SDS011;2105;52.300;9.182;2022-09-20T13:17:54;12.00;;;11.20;;
4182;SDS011;2105;52.300;9.182;2022-09-20T13:20:26;12.57;;;10.93;;
4182;SDS011;2105;52.300;9.182;2022-09-20T13:22:58;10.40;;;9.50;;
4182;SDS011;2105;52.300;9.182;2022-09-20T13:25:26;11.13;;;10.17;;
4182;SDS011;2105;52.300;9.182;2022-09-20T13:27:56;9.97;;;9.27;;
4182;SDS011;2105;52.300;9.182;2022-09-20T13:30:28;9.50;;;8.70;;
4182;SDS011;2105;52.300;9.182;2022-09-20T13:32:57;10.03;;;9.13;;
4182;SDS011;2105;52.300;9.182;2022-09-20T13:35:41;9.77;;;9.00;;
4182;SDS011;2105;52.300;9.182;2022-09-20T13:38:10;9.50;;;8.73;;
4182;SDS011;2105;52.300;9.182;2022-09-20T13:40:44;8.70;;;8.00;;
4182;SDS011;2105;52.300;9.182;2022-09-20T13:43:16;7.30;;;6.80;;
4182;SDS011;2105;52.300;9.182;2022-09-20T13:45:52;7.00;;;6.10;;
4182;SDS011;2105;52.300;9.182;2022-09-20T13:48:22;6.30;;;5.70;;
4182;SDS011;2105;52.300;9.182;2022-09-20T13:50:51;6.13;;;5.47;;
4182;SDS011;2105;52.300;9.182;2022-09-20T13:53:20;7.60;;;5.27;;
4182;SDS011;2105;52.300;9.182;2022-09-20T13:55:48;5.60;;;5.10;;
4182;SDS011;2105;52.300;9.182;2022-09-20T13:58:16;6.70;;;5.30;;
4182;SDS011;2105;52.300;9.182;2022-09-20T14:00:59;6.03;;;5.13;;
4182;SDS011;2105;52.300;9.182;2022-09-20T14:03:40;5.43;;;5.10;;
4182;SDS011;2105;52.300;9.182;2022-09-20T14:06:25;6.40;;;5.80;;
4182;SDS011;2105;52.300;9.182;2022-09-20T14:08:53;6.20;;;5.40;;
4182;SDS011;2105;52.300;9.182;2022-09-20T14:11:25;9.67;;;5.60;;
4182;SDS011;2105;52.300;9.182;2022-09-20T14:14:08;6.73;;;6.10;;
4182;SDS011;2105;52.300;9.182;2022-09-20T14:16:39;9.27;;;7.40;;
4182;SDS011;2105;52.300;9.182;2022-09-20T14:19:10;7.50;;;7.00;;
4182;SDS011;2105;52.300;9.182;2022-09-20T14:21:41;8.77;;;7.57;;
4182;SDS011;2105;52.300;9.182;2022-09-20T14:24:22;8.90;;;7.60;;
4182;SDS011;2105;52.300;9.182;2022-09-20T14:27:05;8.20;;;7.37;;
4182;SDS011;2105;52.300;9.182;2022-09-20T14:29:42;8.00;;;7.40;;
4182;SDS011;2105;52.300;9.182;2022-09-20T14:32:17;8.20;;;7.60;;
4182;SDS011;2105;52.300;9.182;2022-09-20T14:34:52;7.77;;;7.27;;
4182;SDS011;2105;52.300;9.182;2022-09-20T14:37:28;9.10;;;7.60;;
4182;SDS011;2105;52.300;9.182;2022-09-20T14:39:57;8.37;;;7.77;;
4182;SDS011;2105;52.300;9.182;2022-09-20T14:42:27;8.60;;;7.90;;
4182;SDS011;2105;52.300;9.182;2022-09-20T14:44:58;9.83;;;8.67;;
4182;SDS011;2105;52.300;9.182;2022-09-20T14:47:27;9.10;;;8.40;;
4182;SDS011;2105;52.300;9.182;2022-09-20T14:50:02;9.03;;;8.47;;
4182;SDS011;2105;52.300;9.182;2022-09-20T14:52:40;9.23;;;8.63;;
4182;SDS011;2105;52.300;9.182;2022-09-20T14:55:22;11.37;;;8.70;;
4182;SDS011;2105;52.300;9.182;2022-09-20T14:57:56;9.30;;;8.70;;
4182;SDS011;2105;52.300;9.182;2022-09-20T15:00:24;9.23;;;8.33;;
4182;SDS011;2105;52.300;9.182;2022-09-20T15:02:53;9.37;;;8.60;;
4182;SDS011;2105;52.300;9.182;2022-09-20T15:05:22;9.73;;;8.93;;
4182;SDS011;2105;52.300;9.182;2022-09-20T15:07:52;9.13;;;8.23;;
4182;SDS011;2105;52.300;9.182;2022-09-20T15:10:20;9.60;;;8.30;;
4182;SDS011;2105;52.300;9.182;2022-09-20T15:12:47;9.00;;;8.20;;
4182;SDS011;2105;52.300;9.182;2022-09-20T15:15:14;8.10;;;7.50;;
4182;SDS011;2105;52.300;9.182;2022-09-20T15:17:43;8.10;;;7.30;;
4182;SDS011;2105;52.300;9.182;2022-09-20T15:20:14;9.23;;;7.30;;
4182;SDS011;2105;52.300;9.182;2022-09-20T15:22:43;8.23;;;7.53;;
4182;SDS011;2105;52.300;9.182;2022-09-20T15:25:16;8.50;;;7.80;;
4182;SDS011;2105;52.300;9.182;2022-09-20T15:27:45;8.07;;;7.57;;
4182;SDS011;2105;52.300;9.182;2022-09-20T15:30:15;7.77;;;7.20;;
4182;SDS011;2105;52.300;9.182;2022-09-20T15:32:43;8.23;;;7.50;;
4182;SDS011;2105;52.300;9.182;2022-09-20T15:35:11;7.90;;;7.27;;
4182;SDS011;2105;52.300;9.182;2022-09-20T15:37:38;8.07;;;7.37;;
4182;SDS011;2105;52.300;9.182;2022-09-20T15:40:06;8.20;;;7.50;;
4182;SDS011;2105;52.300;9.182;2022-09-20T15:42:35;10.77;;;7.73;;
4182;SDS011;2105;52.300;9.182;2022-09-20T15:45:06;11.73;;;7.60;;
4182;SDS011;2105;52.300;9.182;2022-09-20T15:47:34;8.73;;;7.80;;
4182;SDS011;2105;52.300;9.182;2022-09-20T15:50:03;8.20;;;7.40;;
4182;SDS011;2105;52.300;9.182;2022-09-20T15:52:32;8.53;;;7.93;;
4182;SDS011;2105;52.300;9.182;2022-09-20T15:55:00;7.30;;;6.63;;
4182;SDS011;2105;52.300;9.182;2022-09-20T15:57:27;7.90;;;7.03;;
4182;SDS011;2105;52.300;9.182;2022-09-20T15:59:56;7.90;;;7.30;;
4182;SDS011;2105;52.300;9.182;2022-09-20T16:02:23;7.60;;;7.00;;
4182;SDS011;2105;52.300;9.182;2022-09-20T16:04:50;8.00;;;7.23;;
4182;SDS011;2105;52.300;9.182;2022-09-20T16:07:19;9.50;;;6.97;;
4182;SDS011;2105;52.300;9.182;2022-09-20T16:09:49;6.70;;;6.13;;
4182;SDS011;2105;52.300;9.182;2022-09-20T16:12:16;7.07;;;6.40;;
4182;SDS011;2105;52.300;9.182;2022-09-20T16:14:43;6.90;;;6.30;;
4182;SDS011;2105;52.300;9.182;2022-09-20T16:17:11;6.80;;;6.30;;
4182;SDS011;2105;52.300;9.182;2022-09-20T16:19:38;6.70;;;6.30;;
4182;SDS011;2105;52.300;9.182;2022-09-20T16:22:05;7.23;;;6.37;;
4182;SDS011;2105;52.300;9.182;2022-09-20T16:24:33;7.20;;;6.60;;
4182;SDS011;2105;52.300;9.182;2022-09-20T16:27:02;6.80;;;6.30;;
4182;SDS011;2105;52.300;9.182;2022-09-20T16:29:30;7.30;;;6.70;;
4182;SDS011;2105;52.300;9.182;2022-09-20T16:31:58;6.97;;;6.40;;
4182;SDS011;2105;52.300;9.182;2022-09-20T16:34:29;6.50;;;6.00;;
4182;SDS011;2105;52.300;9.182;2022-09-20T16:36:58;7.30;;;6.17;;
4182;SDS011;2105;52.300;9.182;2022-09-20T16:39:26;8.20;;;6.03;;
4182;SDS011;2105;52.300;9.182;2022-09-20T16:41:54;6.60;;;6.10;;
4182;SDS011;2105;52.300;9.182;2022-09-20T16:44:22;5.90;;;5.30;;
4182;SDS011;2105;52.300;9.182;2022-09-20T16:46:49;8.43;;;5.20;;
4182;SDS011;2105;52.300;9.182;2022-09-20T16:49:16;9.20;;;5.10;;
4182;SDS011;2105;52.300;9.182;2022-09-20T16:51:44;6.27;;;5.47;;
4182;SDS011;2105;52.300;9.182;2022-09-20T16:54:12;6.10;;;5.27;;
4182;SDS011;2105;52.300;9.182;2022-09-20T16:56:40;5.87;;;5.37;;
4182;SDS011;2105;52.300;9.182;2022-09-20T16:59:09;5.80;;;5.30;;
4182;SDS011;2105;52.300;9.182;2022-09-20T17:01:37;7.33;;;5.20;;
4182;SDS011;2105;52.300;9.182;2022-09-20T17:04:05;5.10;;;4.70;;
4182;SDS011;2105;52.300;9.182;2022-09-20T17:06:32;9.83;;;5.30;;
4182;SDS011;2105;52.300;9.182;2022-09-20T17:09:02;6.30;;;5.20;;
4182;SDS011;2105;52.300;9.182;2022-09-20T17:11:35;8.97;;;5.40;;
4182;SDS011;2105;52.300;9.182;2022-09-20T17:14:12;6.13;;;4.63;;
4182;SDS011;2105;52.300;9.182;2022-09-20T17:16:40;5.00;;;4.50;;
4182;SDS011;2105;52.300;9.182;2022-09-20T17:19:11;17.97;;;5.53;;
4182;SDS011;2105;52.300;9.182;2022-09-20T17:21:42;5.83;;;4.53;;
4182;SDS011;2105;52.300;9.182;2022-09-20T18:23:29;6.40;;;3.63;;
4182;SDS011;2105;52.300;9.182;2022-09-20T18:25:55;7.53;;;4.07;;
4182;SDS011;2105;52.300;9.182;2022-09-20T18:28:40;6.40;;;4.30;;
4182;SDS011;2105;52.300;9.182;2022-09-20T18:31:06;8.33;;;3.90;;
4182;SDS011;2105;52.300;9.182;2022-09-20T18:33:34;8.30;;;4.27;;
4182;SDS011;2105;52.300;9.182;2022-09-20T18:36:01;6.60;;;4.07;;
4182;SDS011;2105;52.300;9.182;2022-09-20T18:38:30;6.03;;;4.43;;
4182;SDS011;2105;52.300;9.182;2022-09-20T18:40:58;8.17;;;3.50;;
4182;SDS011;2105;52.300;9.182;2022-09-20T18:43:26;6.50;;;3.70;;
4182;SDS011;2105;52.300;9.182;2022-09-20T18:45:54;4.67;;;3.50;;
4182;SDS011;2105;52.300;9.182;2022-09-20T18:48:21;6.17;;;3.40;;
4182;SDS011;2105;52.300;9.182;2022-09-20T18:50:55;5.83;;;3.50;;
4182;SDS011;2105;52.300;9.182;2022-09-20T18:53:24;12.63;;;3.40;;
4182;SDS011;2105;52.300;9.182;2022-09-20T18:55:53;6.00;;;3.97;;
4182;SDS011;2105;52.300;9.182;2022-09-20T18:58:20;10.23;;;3.67;;
4182;SDS011;2105;52.300;9.182;2022-09-20T19:00:50;8.70;;;3.33;;
4182;SDS011;2105;52.300;9.182;2022-09-20T19:03:26;7.93;;;3.20;;
4182;SDS011;2105;52.300;9.182;2022-09-20T19:06:00;5.27;;;3.90;;
4182;SDS011;2105;52.300;9.182;2022-09-20T19:08:32;5.50;;;3.50;;
4182;SDS011;2105;52.300;9.182;2022-09-20T19:11:06;8.10;;;4.10;;
4182;SDS011;2105;52.300;9.182;2022-09-20T19:13:39;8.20;;;3.83;;
4182;SDS011;2105;52.300;9.182;2022-09-20T19:16:14;5.27;;;3.40;;
4182;SDS011;2105;52.300;9.182;2022-09-20T19:18:48;6.90;;;3.63;;
4182;SDS011;2105;52.300;9.182;2022-09-20T19:21:26;7.07;;;3.40;;
4182;SDS011;2105;52.300;9.182;2022-09-20T19:24:01;9.20;;;3.97;;
4182;SDS011;2105;52.300;9.182;2022-09-20T19:26:37;5.70;;;3.80;;
4182;SDS011;2105;52.300;9.182;2022-09-20T19:29:07;9.63;;;3.57;;
4182;SDS011;2105;52.300;9.182;2022-09-20T19:31:39;6.17;;;4.00;;
4182;SDS011;2105;52.300;9.182;2022-09-20T19:34:09;5.60;;;3.30;;
4182;SDS011;2105;52.300;9.182;2022-09-20T19:36:43;6.40;;;3.40;;
4182;SDS011;2105;52.300;9.182;2022-09-20T19:39:21;5.53;;;3.60;;
4182;SDS011;2105;52.300;9.182;2022-09-20T19:41:59;4.77;;;3.60;;
4182;SDS011;2105;52.300;9.182;2022-09-20T19:44:39;5.07;;;3.50;;
4182;SDS011;2105;52.300;9.182;2022-09-20T19:47:19;4.90;;;3.20;;
4182;SDS011;2105;52.300;9.182;2022-09-20T19:49:54;9.40;;;3.47;;
4182;SDS011;2105;52.300;9.182;2022-09-20T19:52:27;5.20;;;3.10;;
4182;SDS011;2105;52.300;9.182;2022-09-20T19:54:55;6.83;;;3.57;;
4182;SDS011;2105;52.300;9.182;2022-09-20T19:57:26;6.90;;;3.30;;
4182;SDS011;2105;52.300;9.182;2022-09-20T20:00:00;4.47;;;2.90;;
4182;SDS011;2105;52.300;9.182;2022-09-20T20:02:27;4.17;;;3.00;;
4182;SDS011;2105;52.300;9.182;2022-09-20T20:04:54;8.23;;;2.77;;
4182;SDS011;2105;52.300;9.182;2022-09-20T20:07:24;3.23;;;2.87;;
4182;SDS011;2105;52.300;9.182;2022-09-20T20:09:56;6.33;;;3.30;;
4182;SDS011;2105;52.300;9.182;2022-09-20T20:12:33;4.83;;;3.13;;
4182;SDS011;2105;52.300;9.182;2022-09-20T20:15:06;6.10;;;3.43;;
4182;SDS011;2105;52.300;9.182;2022-09-20T20:17:43;4.27;;;3.10;;
4182;SDS011;2105;52.300;9.182;2022-09-20T20:20:17;6.83;;;2.97;;
4182;SDS011;2105;52.300;9.182;2022-09-20T20:22:54;5.10;;;2.93;;
4182;SDS011;2105;52.300;9.182;2022-09-20T20:25:35;4.03;;;2.83;;
4182;SDS011;2105;52.300;9.182;2022-09-20T20:28:10;5.00;;;2.83;;
4182;SDS011;2105;52.300;9.182;2022-09-20T20:30:37;2.80;;;2.60;;
4182;SDS011;2105;52.300;9.182;2022-09-20T20:33:03;4.90;;;2.90;;
4182;SDS011;2105;52.300;9.182;2022-09-20T20:35:31;27.43;;;5.13;;
4182;SDS011;2105;52.300;9.182;2022-09-20T20:37:58;6.20;;;3.10;;
4182;SDS011;2105;52.300;9.182;2022-09-20T20:40:24;5.73;;;2.90;;
4182;SDS011;2105;52.300;9.182;2022-09-20T20:42:54;5.13;;;2.63;;
4182;SDS011;2105;52.300;9.182;2022-09-20T20:45:25;3.60;;;2.67;;
4182;SDS011;2105;52.300;9.182;2022-09-20T20:47:54;4.00;;;2.50;;
4182;SDS011;2105;52.300;9.182;2022-09-20T20:50:22;7.30;;;3.20;;
4182;SDS011;2105;52.300;9.182;2022-09-20T20:52:50;8.97;;;3.23;;
4182;SDS011;2105;52.300;9.182;2022-09-20T20:55:17;3.93;;;3.13;;
4182;SDS011;2105;52.300;9.182;2022-09-20T20:57:44;2.77;;;2.57;;
4182;SDS011;2105;52.300;9.182;2022-09-20T21:00:18;5.43;;;3.20;;
4182;SDS011;2105;52.300;9.182;2022-09-20T21:02:46;7.13;;;2.60;;
4182;SDS011;2105;52.300;9.182;2022-09-20T21:05:13;5.07;;;3.37;;
4182;SDS011;2105;52.300;9.182;2022-09-20T21:07:39;4.83;;;2.80;;
4182;SDS011;2105;52.300;9.182;2022-09-20T21:10:06;7.70;;;3.10;;
4182;SDS011;2105;52.300;9.182;2022-09-20T21:12:33;5.20;;;3.03;;
4182;SDS011;2105;52.300;9.182;2022-09-20T21:15:00;7.73;;;3.87;;
4182;SDS011;2105;52.300;9.182;2022-09-20T21:17:27;3.70;;;3.40;;
4182;SDS011;2105;52.300;9.182;2022-09-20T21:19:55;5.60;;;3.83;;
4182;SDS011;2105;52.300;9.182;2022-09-20T21:22:21;8.70;;;4.30;;
4182;SDS011;2105;52.300;9.182;2022-09-20T21:24:48;5.17;;;4.43;;
4182;SDS011;2105;52.300;9.182;2022-09-20T21:27:14;5.40;;;4.00;;
4182;SDS011;2105;52.300;9.182;2022-09-20T21:29:41;6.50;;;3.87;;
4182;SDS011;2105;52.300;9.182;2022-09-20T21:32:08;6.53;;;3.90;;
4182;SDS011;2105;52.300;9.182;2022-09-20T21:34:34;8.23;;;3.60;;
4182;SDS011;2105;52.300;9.182;2022-09-20T21:37:02;9.13;;;3.97;;
4182;SDS011;2105;52.300;9.182;2022-09-20T21:39:29;7.77;;;4.17;;
4182;SDS011;2105;52.300;9.182;2022-09-20T21:41:56;6.83;;;3.43;;
4182;SDS011;2105;52.300;9.182;2022-09-20T21:44:23;7.90;;;3.50;;
4182;SDS011;2105;52.300;9.182;2022-09-20T21:46:49;6.20;;;3.57;;
4182;SDS011;2105;52.300;9.182;2022-09-20T21:49:16;11.00;;;4.10;;
4182;SDS011;2105;52.300;9.182;2022-09-20T21:51:42;5.30;;;4.00;;
4182;SDS011;2105;52.300;9.182;2022-09-20T21:54:10;5.60;;;3.73;;
4182;SDS011;2105;52.300;9.182;2022-09-20T21:56:37;8.53;;;3.90;;
4182;SDS011;2105;52.300;9.182;2022-09-20T21:59:05;4.90;;;3.57;;
4182;SDS011;2105;52.300;9.182;2022-09-20T22:01:32;11.70;;;3.90;;
4182;SDS011;2105;52.300;9.182;2022-09-20T22:04:02;6.70;;;4.10;;
4182;SDS011;2105;52.300;9.182;2022-09-20T22:06:31;11.80;;;4.77;;
4182;SDS011;2105;52.300;9.182;2022-09-20T22:09:00;7.77;;;3.67;;
4182;SDS011;2105;52.300;9.182;2022-09-20T22:11:29;11.43;;;4.17;;
4182;SDS011;2105;52.300;9.182;2022-09-20T22:13:57;4.40;;;4.00;;
4182;SDS011;2105;52.300;9.182;2022-09-20T22:16:24;7.53;;;4.07;;
4182;SDS011;2105;52.300;9.182;2022-09-20T22:18:52;7.00;;;3.63;;
4182;SDS011;2105;52.300;9.182;2022-09-20T22:21:20;5.80;;;3.50;;
4182;SDS011;2105;52.300;9.182;2022-09-20T22:23:48;7.90;;;3.20;;
4182;SDS011;2105;52.300;9.182;2022-09-20T22:26:17;4.40;;;3.40;;
4182;SDS011;2105;52.300;9.182;2022-09-20T22:28:47;9.10;;;3.50;;
4182;SDS011;2105;52.300;9.182;2022-09-20T22:31:15;8.77;;;3.67;;
4182;SDS011;2105;52.300;9.182;2022-09-20T22:33:44;7.80;;;4.13;;
4182;SDS011;2105;52.300;9.182;2022-09-20T22:36:13;7.50;;;3.73;;
4182;SDS011;2105;52.300;9.182;2022-09-20T22:38:41;5.50;;;3.80;;
4182;SDS011;2105;52.300;9.182;2022-09-20T22:41:09;6.87;;;4.20;;
4182;SDS011;2105;52.300;9.182;2022-09-20T22:43:36;8.83;;;3.80;;
4182;SDS011;2105;52.300;9.182;2022-09-20T22:46:05;8.40;;;4.10;;